sensor_id;sensor_type;location;lat;lon;timestamp;P1;durP1;ratioP1;P2;durP2;ratioP2
35290;SDS011;21411;50.024;19.220;2024-02-14T00:00:37;126.40;;;88.80;;
35290;SDS011;21411;50.024;19.220;2024-02-14T00:03:23;131.90;;;86.10;;
35290;SDS011;21411;50.024;19.220;2024-02-14T00:05:50;134.60;;;90.00;;
35290;SDS011;21411;50.024;19.220;2024-02-14T00:08:18;131.50;;;90.40;;
35290;SDS011;21411;50.024;19.220;2024-02-14T00:10:45;132.10;;;88.30;;
35290;SDS011;21411;50.024;19.220;2024-02-14T00:13:11;136.00;;;94.50;;
35290;SDS011;21411;50.024;19.220;2024-02-14T00:15:38;140.40;;;91.20;;
35290;SDS011;21411;50.024;19.220;2024-02-14T00:18:05;135.00;;;92.10;;
35290;SDS011;21411;50.024;19.220;2024-02-14T00:20:31;124.40;;;87.90;;
35290;SDS011;21411;50.024;19.220;2024-02-14T00:22:59;132.80;;;89.80;;
35290;SDS011;21411;50.024;19.220;2024-02-14T00:25:25;126.80;;;87.10;;
35290;SDS011;21411;50.024;19.220;2024-02-14T00:27:52;127.80;;;86.40;;
35290;SDS011;21411;50.024;19.220;2024-02-14T00:30:20;126.30;;;86.10;;
35290;SDS011;21411;50.024;19.220;2024-02-14T00:32:49;137.40;;;89.80;;
35290;SDS011;21411;50.024;19.220;2024-02-14T00:35:16;132.40;;;90.50;;
35290;SDS011;21411;50.024;19.220;2024-02-14T00:37:43;131.70;;;89.40;;
35290;SDS011;21411;50.024;19.220;2024-02-14T00:40:10;133.40;;;93.60;;
35290;SDS011;21411;50.024;19.220;2024-02-14T00:42:37;139.10;;;91.50;;
35290;SDS011;21411;50.024;19.220;2024-02-14T00:45:06;132.70;;;93.10;;
35290;SDS011;21411;50.024;19.220;2024-02-14T00:47:36;146.30;;;96.80;;
35290;SDS011;21411;50.024;19.220;2024-02-14T00:50:03;146.40;;;98.10;;
35290;SDS011;21411;50.024;19.220;2024-02-14T00:52:30;137.40;;;95.80;;
35290;SDS011;21411;50.024;19.220;2024-02-14T00:54:56;144.90;;;96.60;;
35290;SDS011;21411;50.024;19.220;2024-02-14T00:57:23;135.80;;;93.00;;
35290;SDS011;21411;50.024;19.220;2024-02-14T00:59:53;160.20;;;108.80;;
35290;SDS011;21411;50.024;19.220;2024-02-14T01:02:21;146.10;;;99.90;;
35290;SDS011;21411;50.024;19.220;2024-02-14T01:04:48;151.40;;;102.60;;
35290;SDS011;21411;50.024;19.220;2024-02-14T01:07:14;149.00;;;101.60;;
35290;SDS011;21411;50.024;19.220;2024-02-14T01:09:41;159.70;;;107.10;;
35290;SDS011;21411;50.024;19.220;2024-02-14T01:12:07;172.90;;;116.50;;
35290;SDS011;21411;50.024;19.220;2024-02-14T01:14:34;160.20;;;111.30;;
35290;SDS011;21411;50.024;19.220;2024-02-14T01:17:01;161.60;;;108.80;;
35290;SDS011;21411;50.024;19.220;2024-02-14T01:19:27;165.30;;;109.20;;
35290;SDS011;21411;50.024;19.220;2024-02-14T01:21:55;157.00;;;104.60;;
35290;SDS011;21411;50.024;19.220;2024-02-14T01:24:23;159.40;;;106.80;;
35290;SDS011;21411;50.024;19.220;2024-02-14T01:26:53;154.70;;;102.90;;
35290;SDS011;21411;50.024;19.220;2024-02-14T01:29:21;156.40;;;104.80;;
35290;SDS011;21411;50.024;19.220;2024-02-14T01:31:49;152.20;;;104.90;;
35290;SDS011;21411;50.024;19.220;2024-02-14T01:34:17;156.20;;;105.90;;
35290;SDS011;21411;50.024;19.220;2024-02-14T01:36:43;149.10;;;104.20;;
35290;SDS011;21411;50.024;19.220;2024-02-14T01:39:10;161.80;;;106.20;;
35290;SDS011;21411;50.024;19.220;2024-02-14T01:41:38;155.40;;;105.70;;
35290;SDS011;21411;50.024;19.220;2024-02-14T01:44:04;153.70;;;105.50;;
35290;SDS011;21411;50.024;19.220;2024-02-14T01:46:31;151.20;;;102.10;;
35290;SDS011;21411;50.024;19.220;2024-02-14T01:48:58;163.80;;;106.30;;
35290;SDS011;21411;50.024;19.220;2024-02-14T01:51:25;157.60;;;105.10;;
35290;SDS011;21411;50.024;19.220;2024-02-14T01:53:52;150.40;;;103.50;;
35290;SDS011;21411;50.024;19.220;2024-02-14T01:56:20;145.10;;;101.80;;
35290;SDS011;21411;50.024;19.220;2024-02-14T01:58:47;148.00;;;101.10;;
35290;SDS011;21411;50.024;19.220;2024-02-14T02:01:13;148.60;;;99.00;;
35290;SDS011;21411;50.024;19.220;2024-02-14T02:03:41;140.10;;;96.60;;
35290;SDS011;21411;50.024;19.220;2024-02-14T02:06:08;142.70;;;96.70;;
35290;SDS011;21411;50.024;19.220;2024-02-14T02:08:35;134.30;;;92.10;;
35290;SDS011;21411;50.024;19.220;2024-02-14T02:11:03;144.50;;;95.90;;
35290;SDS011;21411;50.024;19.220;2024-02-14T02:13:29;141.00;;;96.10;;
35290;SDS011;21411;50.024;19.220;2024-02-14T02:15:56;148.70;;;97.90;;
35290;SDS011;21411;50.024;19.220;2024-02-14T02:18:23;152.50;;;99.90;;
35290;SDS011;21411;50.024;19.220;2024-02-14T02:20:52;144.40;;;96.90;;
35290;SDS011;21411;50.024;19.220;2024-02-14T02:23:18;151.70;;;100.60;;
35290;SDS011;21411;50.024;19.220;2024-02-14T02:25:45;150.20;;;102.50;;
35290;SDS011;21411;50.024;19.220;2024-02-14T02:28:11;136.00;;;95.40;;
35290;SDS011;21411;50.024;19.220;2024-02-14T02:30:38;141.70;;;97.40;;
35290;SDS011;21411;50.024;19.220;2024-02-14T02:33:05;147.90;;;98.50;;
35290;SDS011;21411;50.024;19.220;2024-02-14T02:35:33;142.10;;;96.70;;
35290;SDS011;21411;50.024;19.220;2024-02-14T02:38:01;152.20;;;97.30;;
35290;SDS011;21411;50.024;19.220;2024-02-14T02:40:27;141.20;;;100.30;;
35290;SDS011;21411;50.024;19.220;2024-02-14T02:42:54;143.60;;;97.50;;
35290;SDS011;21411;50.024;19.220;2024-02-14T02:45:21;145.80;;;98.50;;
35290;SDS011;21411;50.024;19.220;2024-02-14T02:47:48;142.90;;;97.50;;
35290;SDS011;21411;50.024;19.220;2024-02-14T02:50:17;147.90;;;97.60;;
35290;SDS011;21411;50.024;19.220;2024-02-14T02:52:45;143.90;;;97.50;;
35290;SDS011;21411;50.024;19.220;2024-02-14T02:55:12;134.90;;;92.90;;
35290;SDS011;21411;50.024;19.220;2024-02-14T02:57:40;141.00;;;95.40;;
35290;SDS011;21411;50.024;19.220;2024-02-14T03:03:02;140.20;;;94.60;;
35290;SDS011;21411;50.024;19.220;2024-02-14T03:05:31;139.10;;;95.30;;
35290;SDS011;21411;50.024;19.220;2024-02-14T03:08:00;146.50;;;97.00;;
35290;SDS011;21411;50.024;19.220;2024-02-14T03:10:26;134.00;;;92.00;;
35290;SDS011;21411;50.024;19.220;2024-02-14T03:12:55;145.40;;;98.60;;
35290;SDS011;21411;50.024;19.220;2024-02-14T03:15:21;142.10;;;97.00;;
35290;SDS011;21411;50.024;19.220;2024-02-14T03:17:51;139.20;;;93.50;;
35290;SDS011;21411;50.024;19.220;2024-02-14T03:20:18;142.90;;;95.80;;
35290;SDS011;21411;50.024;19.220;2024-02-14T03:22:46;135.00;;;94.90;;
35290;SDS011;21411;50.024;19.220;2024-02-14T03:25:15;142.20;;;94.50;;
35290;SDS011;21411;50.024;19.220;2024-02-14T03:27:43;144.90;;;101.80;;
35290;SDS011;21411;50.024;19.220;2024-02-14T03:30:19;148.00;;;100.80;;
35290;SDS011;21411;50.024;19.220;2024-02-14T03:32:46;149.10;;;104.20;;
35290;SDS011;21411;50.024;19.220;2024-02-14T03:35:13;155.60;;;105.90;;
35290;SDS011;21411;50.024;19.220;2024-02-14T03:37:43;143.40;;;102.90;;
35290;SDS011;21411;50.024;19.220;2024-02-14T03:40:13;142.00;;;99.60;;
35290;SDS011;21411;50.024;19.220;2024-02-14T03:42:40;146.40;;;101.00;;
35290;SDS011;21411;50.024;19.220;2024-02-14T03:45:07;142.10;;;101.10;;
35290;SDS011;21411;50.024;19.220;2024-02-14T03:47:34;137.80;;;100.30;;
35290;SDS011;21411;50.024;19.220;2024-02-14T03:50:01;130.70;;;93.10;;
35290;SDS011;21411;50.024;19.220;2024-02-14T03:52:30;134.50;;;98.00;;
35290;SDS011;21411;50.024;19.220;2024-02-14T03:55:00;135.10;;;95.00;;
35290;SDS011;21411;50.024;19.220;2024-02-14T03:57:27;138.30;;;96.70;;
35290;SDS011;21411;50.024;19.220;2024-02-14T03:59:59;138.00;;;95.30;;
35290;SDS011;21411;50.024;19.220;2024-02-14T04:02:30;128.80;;;93.00;;
35290;SDS011;21411;50.024;19.220;2024-02-14T04:04:57;134.60;;;95.50;;
35290;SDS011;21411;50.024;19.220;2024-02-14T04:07:24;130.30;;;91.20;;
35290;SDS011;21411;50.024;19.220;2024-02-14T04:09:51;132.10;;;92.20;;
35290;SDS011;21411;50.024;19.220;2024-02-14T04:12:17;132.70;;;93.60;;
35290;SDS011;21411;50.024;19.220;2024-02-14T04:14:44;123.10;;;88.90;;
35290;SDS011;21411;50.024;19.220;2024-02-14T04:17:10;132.60;;;93.00;;
35290;SDS011;21411;50.024;19.220;2024-02-14T04:19:39;133.70;;;92.90;;
35290;SDS011;21411;50.024;19.220;2024-02-14T04:22:06;129.30;;;92.40;;
35290;SDS011;21411;50.024;19.220;2024-02-14T04:24:34;128.00;;;92.50;;
35290;SDS011;21411;50.024;19.220;2024-02-14T04:27:01;130.60;;;92.10;;
35290;SDS011;21411;50.024;19.220;2024-02-14T04:29:30;131.10;;;96.20;;
35290;SDS011;21411;50.024;19.220;2024-02-14T04:31:59;132.20;;;95.90;;
35290;SDS011;21411;50.024;19.220;2024-02-14T04:34:26;148.00;;;98.20;;
35290;SDS011;21411;50.024;19.220;2024-02-14T04:36:53;138.30;;;95.70;;
35290;SDS011;21411;50.024;19.220;2024-02-14T04:39:19;140.60;;;97.30;;
35290;SDS011;21411;50.024;19.220;2024-02-14T04:41:46;138.20;;;95.40;;
35290;SDS011;21411;50.024;19.220;2024-02-14T04:44:13;132.10;;;92.40;;
35290;SDS011;21411;50.024;19.220;2024-02-14T04:46:39;124.00;;;89.70;;
35290;SDS011;21411;50.024;19.220;2024-02-14T04:51:37;145.00;;;100.20;;
35290;SDS011;21411;50.024;19.220;2024-02-14T04:54:05;144.20;;;101.10;;
35290;SDS011;21411;50.024;19.220;2024-02-14T04:56:32;148.70;;;105.90;;
35290;SDS011;21411;50.024;19.220;2024-02-14T04:58:59;139.70;;;102.60;;
35290;SDS011;21411;50.024;19.220;2024-02-14T05:01:25;145.70;;;102.10;;
35290;SDS011;21411;50.024;19.220;2024-02-14T05:03:52;142.50;;;101.10;;
35290;SDS011;21411;50.024;19.220;2024-02-14T05:06:19;138.40;;;99.60;;
35290;SDS011;21411;50.024;19.220;2024-02-14T05:08:45;146.60;;;102.80;;
35290;SDS011;21411;50.024;19.220;2024-02-14T05:11:12;143.40;;;100.30;;
35290;SDS011;21411;50.024;19.220;2024-02-14T05:13:39;147.10;;;102.40;;
35290;SDS011;21411;50.024;19.220;2024-02-14T05:16:08;149.00;;;102.30;;
35290;SDS011;21411;50.024;19.220;2024-02-14T05:18:37;139.20;;;98.50;;
35290;SDS011;21411;50.024;19.220;2024-02-14T05:21:08;143.50;;;100.10;;
35290;SDS011;21411;50.024;19.220;2024-02-14T05:26:02;140.30;;;96.30;;
35290;SDS011;21411;50.024;19.220;2024-02-14T05:28:29;139.30;;;93.00;;
35290;SDS011;21411;50.024;19.220;2024-02-14T05:30:57;136.80;;;97.20;;
35290;SDS011;21411;50.024;19.220;2024-02-14T05:33:26;133.10;;;94.10;;
35290;SDS011;21411;50.024;19.220;2024-02-14T05:35:52;132.10;;;93.00;;
35290;SDS011;21411;50.024;19.220;2024-02-14T05:38:19;131.80;;;93.30;;
35290;SDS011;21411;50.024;19.220;2024-02-14T05:40:46;132.30;;;93.00;;
35290;SDS011;21411;50.024;19.220;2024-02-14T05:43:16;135.50;;;91.40;;
35290;SDS011;21411;50.024;19.220;2024-02-14T05:45:44;130.10;;;91.30;;
35290;SDS011;21411;50.024;19.220;2024-02-14T05:48:11;128.30;;;92.00;;
35290;SDS011;21411;50.024;19.220;2024-02-14T05:50:37;137.60;;;92.70;;
35290;SDS011;21411;50.024;19.220;2024-02-14T05:53:04;126.60;;;91.80;;
35290;SDS011;21411;50.024;19.220;2024-02-14T05:55:31;132.40;;;95.10;;
35290;SDS011;21411;50.024;19.220;2024-02-14T05:57:58;131.90;;;94.00;;
35290;SDS011;21411;50.024;19.220;2024-02-14T06:00:25;131.10;;;94.00;;
35290;SDS011;21411;50.024;19.220;2024-02-14T06:02:52;129.50;;;90.30;;
35290;SDS011;21411;50.024;19.220;2024-02-14T06:05:20;132.30;;;93.90;;
35290;SDS011;21411;50.024;19.220;2024-02-14T06:07:46;139.50;;;100.90;;
35290;SDS011;21411;50.024;19.220;2024-02-14T06:10:13;139.60;;;100.20;;
35290;SDS011;21411;50.024;19.220;2024-02-14T06:12:40;147.40;;;100.60;;
35290;SDS011;21411;50.024;19.220;2024-02-14T06:15:07;149.70;;;106.70;;
35290;SDS011;21411;50.024;19.220;2024-02-14T06:17:34;140.00;;;99.00;;
35290;SDS011;21411;50.024;19.220;2024-02-14T06:20:01;144.30;;;102.70;;
35290;SDS011;21411;50.024;19.220;2024-02-14T06:22:33;140.60;;;103.10;;
35290;SDS011;21411;50.024;19.220;2024-02-14T06:25:00;136.20;;;99.70;;
35290;SDS011;21411;50.024;19.220;2024-02-14T06:27:27;151.70;;;108.60;;
35290;SDS011;21411;50.024;19.220;2024-02-14T06:29:54;148.40;;;105.40;;
35290;SDS011;21411;50.024;19.220;2024-02-14T06:32:21;150.60;;;112.80;;
35290;SDS011;21411;50.024;19.220;2024-02-14T06:34:48;144.40;;;107.30;;
35290;SDS011;21411;50.024;19.220;2024-02-14T06:37:15;136.20;;;99.20;;
35290;SDS011;21411;50.024;19.220;2024-02-14T06:39:41;143.40;;;105.40;;
35290;SDS011;21411;50.024;19.220;2024-02-14T06:42:08;135.80;;;101.30;;
35290;SDS011;21411;50.024;19.220;2024-02-14T06:44:34;137.20;;;100.30;;
35290;SDS011;21411;50.024;19.220;2024-02-14T06:47:01;153.70;;;109.70;;
35290;SDS011;21411;50.024;19.220;2024-02-14T06:49:27;138.80;;;104.50;;
35290;SDS011;21411;50.024;19.220;2024-02-14T06:51:54;138.00;;;103.10;;
35290;SDS011;21411;50.024;19.220;2024-02-14T06:54:21;137.50;;;102.90;;
35290;SDS011;21411;50.024;19.220;2024-02-14T06:56:47;134.40;;;101.90;;
35290;SDS011;21411;50.024;19.220;2024-02-14T06:59:14;129.80;;;100.10;;
35290;SDS011;21411;50.024;19.220;2024-02-14T07:01:41;122.00;;;93.60;;
35290;SDS011;21411;50.024;19.220;2024-02-14T07:04:08;141.00;;;103.20;;
35290;SDS011;21411;50.024;19.220;2024-02-14T07:06:34;132.80;;;97.00;;
35290;SDS011;21411;50.024;19.220;2024-02-14T07:09:01;136.90;;;100.90;;
35290;SDS011;21411;50.024;19.220;2024-02-14T07:11:28;150.50;;;103.10;;
35290;SDS011;21411;50.024;19.220;2024-02-14T07:13:55;156.80;;;105.50;;
35290;SDS011;21411;50.024;19.220;2024-02-14T07:16:22;147.80;;;101.90;;
35290;SDS011;21411;50.024;19.220;2024-02-14T07:18:49;148.50;;;102.00;;
35290;SDS011;21411;50.024;19.220;2024-02-14T07:21:16;157.20;;;105.80;;
35290;SDS011;21411;50.024;19.220;2024-02-14T07:23:43;157.10;;;109.50;;
35290;SDS011;21411;50.024;19.220;2024-02-14T07:26:10;180.90;;;114.50;;
35290;SDS011;21411;50.024;19.220;2024-02-14T07:28:36;163.50;;;111.30;;
35290;SDS011;21411;50.024;19.220;2024-02-14T07:31:03;167.80;;;108.70;;
35290;SDS011;21411;50.024;19.220;2024-02-14T07:33:30;166.40;;;112.10;;
35290;SDS011;21411;50.024;19.220;2024-02-14T07:35:57;160.70;;;111.50;;
35290;SDS011;21411;50.024;19.220;2024-02-14T07:38:23;164.50;;;109.20;;
35290;SDS011;21411;50.024;19.220;2024-02-14T07:40:50;160.60;;;106.40;;
35290;SDS011;21411;50.024;19.220;2024-02-14T07:43:17;155.40;;;107.40;;
35290;SDS011;21411;50.024;19.220;2024-02-14T07:45:43;149.40;;;104.20;;
35290;SDS011;21411;50.024;19.220;2024-02-14T07:48:10;152.80;;;106.00;;
35290;SDS011;21411;50.024;19.220;2024-02-14T07:50:37;142.20;;;99.80;;
35290;SDS011;21411;50.024;19.220;2024-02-14T07:53:03;141.80;;;100.00;;
35290;SDS011;21411;50.024;19.220;2024-02-14T07:55:30;133.60;;;97.10;;
35290;SDS011;21411;50.024;19.220;2024-02-14T07:57:57;128.30;;;92.00;;
35290;SDS011;21411;50.024;19.220;2024-02-14T08:00:26;116.60;;;88.00;;
35290;SDS011;21411;50.024;19.220;2024-02-14T08:02:52;101.90;;;76.50;;
35290;SDS011;21411;50.024;19.220;2024-02-14T08:05:21;95.60;;;71.20;;
35290;SDS011;21411;50.024;19.220;2024-02-14T08:07:47;97.80;;;72.90;;
35290;SDS011;21411;50.024;19.220;2024-02-14T08:10:14;91.00;;;65.60;;
35290;SDS011;21411;50.024;19.220;2024-02-14T08:12:41;83.40;;;62.60;;
35290;SDS011;21411;50.024;19.220;2024-02-14T08:15:07;82.60;;;62.40;;
35290;SDS011;21411;50.024;19.220;2024-02-14T08:17:35;76.70;;;57.10;;
35290;SDS011;21411;50.024;19.220;2024-02-14T08:20:02;76.40;;;55.90;;
35290;SDS011;21411;50.024;19.220;2024-02-14T08:22:30;72.30;;;50.80;;
35290;SDS011;21411;50.024;19.220;2024-02-14T08:24:57;64.80;;;46.90;;
35290;SDS011;21411;50.024;19.220;2024-02-14T08:27:24;68.60;;;46.60;;
35290;SDS011;21411;50.024;19.220;2024-02-14T08:29:52;73.40;;;47.20;;
35290;SDS011;21411;50.024;19.220;2024-02-14T08:32:19;68.30;;;45.10;;
35290;SDS011;21411;50.024;19.220;2024-02-14T08:34:45;62.10;;;40.40;;
35290;SDS011;21411;50.024;19.220;2024-02-14T08:37:12;59.30;;;41.00;;
35290;SDS011;21411;50.024;19.220;2024-02-14T08:39:39;62.50;;;41.00;;
35290;SDS011;21411;50.024;19.220;2024-02-14T08:42:07;56.70;;;38.90;;
35290;SDS011;21411;50.024;19.220;2024-02-14T08:44:34;50.30;;;31.80;;
35290;SDS011;21411;50.024;19.220;2024-02-14T08:47:02;51.00;;;31.70;;
35290;SDS011;21411;50.024;19.220;2024-02-14T08:49:28;48.90;;;29.70;;
35290;SDS011;21411;50.024;19.220;2024-02-14T08:51:55;55.20;;;30.30;;
35290;SDS011;21411;50.024;19.220;2024-02-14T08:54:21;47.50;;;29.90;;
35290;SDS011;21411;50.024;19.220;2024-02-14T08:56:49;54.80;;;33.90;;
35290;SDS011;21411;50.024;19.220;2024-02-14T08:59:16;50.20;;;34.00;;
35290;SDS011;21411;50.024;19.220;2024-02-14T09:01:42;48.80;;;33.20;;
35290;SDS011;21411;50.024;19.220;2024-02-14T09:04:09;45.00;;;32.20;;
35290;SDS011;21411;50.024;19.220;2024-02-14T09:06:36;44.90;;;30.30;;
35290;SDS011;21411;50.024;19.220;2024-02-14T09:09:03;38.00;;;28.40;;
35290;SDS011;21411;50.024;19.220;2024-02-14T09:11:30;36.30;;;27.60;;
35290;SDS011;21411;50.024;19.220;2024-02-14T09:13:58;37.80;;;26.40;;
35290;SDS011;21411;50.024;19.220;2024-02-14T09:16:30;36.70;;;26.60;;
35290;SDS011;21411;50.024;19.220;2024-02-14T09:18:57;29.80;;;22.00;;
35290;SDS011;21411;50.024;19.220;2024-02-14T09:21:24;34.80;;;22.10;;
35290;SDS011;21411;50.024;19.220;2024-02-14T09:23:51;27.40;;;20.10;;
35290;SDS011;21411;50.024;19.220;2024-02-14T09:26:18;26.40;;;19.10;;
35290;SDS011;21411;50.024;19.220;2024-02-14T09:28:45;27.70;;;19.50;;
35290;SDS011;21411;50.024;19.220;2024-02-14T09:31:11;27.70;;;17.80;;
35290;SDS011;21411;50.024;19.220;2024-02-14T09:33:38;26.10;;;18.10;;
35290;SDS011;21411;50.024;19.220;2024-02-14T09:36:06;22.10;;;16.30;;
35290;SDS011;21411;50.024;19.220;2024-02-14T09:38:33;20.60;;;15.80;;
35290;SDS011;21411;50.024;19.220;2024-02-14T09:44:03;20.90;;;15.90;;
35290;SDS011;21411;50.024;19.220;2024-02-14T09:46:30;20.00;;;14.20;;
35290;SDS011;21411;50.024;19.220;2024-02-14T09:48:58;19.10;;;12.90;;
35290;SDS011;21411;50.024;19.220;2024-02-14T09:51:26;18.30;;;13.10;;
35290;SDS011;21411;50.024;19.220;2024-02-14T09:53:53;16.20;;;13.60;;
35290;SDS011;21411;50.024;19.220;2024-02-14T09:56:21;20.40;;;13.70;;
35290;SDS011;21411;50.024;19.220;2024-02-14T09:58:51;19.20;;;14.20;;
35290;SDS011;21411;50.024;19.220;2024-02-14T10:01:23;19.50;;;14.20;;
35290;SDS011;21411;50.024;19.220;2024-02-14T10:03:50;14.10;;;11.20;;
35290;SDS011;21411;50.024;19.220;2024-02-14T10:06:18;18.10;;;11.60;;
35290;SDS011;21411;50.024;19.220;2024-02-14T10:08:49;18.80;;;12.30;;
35290;SDS011;21411;50.024;19.220;2024-02-14T10:11:17;20.10;;;12.00;;
35290;SDS011;21411;50.024;19.220;2024-02-14T10:13:47;18.90;;;12.90;;
35290;SDS011;21411;50.024;19.220;2024-02-14T10:16:16;19.00;;;13.50;;
35290;SDS011;21411;50.024;19.220;2024-02-14T10:18:45;20.70;;;15.50;;
35290;SDS011;21411;50.024;19.220;2024-02-14T10:21:16;22.70;;;14.50;;
35290;SDS011;21411;50.024;19.220;2024-02-14T10:23:50;18.00;;;11.70;;
35290;SDS011;21411;50.024;19.220;2024-02-14T10:26:18;16.90;;;12.00;;
35290;SDS011;21411;50.024;19.220;2024-02-14T10:28:45;15.20;;;11.30;;
35290;SDS011;21411;50.024;19.220;2024-02-14T10:31:12;16.10;;;12.30;;
35290;SDS011;21411;50.024;19.220;2024-02-14T10:33:39;16.10;;;12.40;;
35290;SDS011;21411;50.024;19.220;2024-02-14T10:36:07;15.50;;;11.10;;
35290;SDS011;21411;50.024;19.220;2024-02-14T10:38:35;15.20;;;9.60;;
35290;SDS011;21411;50.024;19.220;2024-02-14T10:41:02;11.70;;;8.30;;
35290;SDS011;21411;50.024;19.220;2024-02-14T10:43:29;12.10;;;9.30;;
35290;SDS011;21411;50.024;19.220;2024-02-14T10:45:56;12.30;;;8.80;;
35290;SDS011;21411;50.024;19.220;2024-02-14T10:48:25;10.80;;;8.30;;
35290;SDS011;21411;50.024;19.220;2024-02-14T10:50:54;11.60;;;9.10;;
35290;SDS011;21411;50.024;19.220;2024-02-14T10:53:24;11.70;;;9.50;;
35290;SDS011;21411;50.024;19.220;2024-02-14T10:55:55;12.90;;;9.70;;
35290;SDS011;21411;50.024;19.220;2024-02-14T10:58:24;12.30;;;8.40;;
35290;SDS011;21411;50.024;19.220;2024-02-14T11:00:56;10.10;;;7.60;;
35290;SDS011;21411;50.024;19.220;2024-02-14T11:03:23;11.20;;;6.00;;
35290;SDS011;21411;50.024;19.220;2024-02-14T11:05:53;7.90;;;5.50;;
35290;SDS011;21411;50.024;19.220;2024-02-14T11:08:28;7.00;;;4.50;;
35290;SDS011;21411;50.024;19.220;2024-02-14T11:11:01;5.10;;;4.10;;
35290;SDS011;21411;50.024;19.220;2024-02-14T11:13:31;7.30;;;5.20;;
35290;SDS011;21411;50.024;19.220;2024-02-14T11:16:01;7.50;;;5.10;;
35290;SDS011;21411;50.024;19.220;2024-02-14T11:18:29;6.60;;;4.80;;
35290;SDS011;21411;50.024;19.220;2024-02-14T11:21:15;5.20;;;4.70;;
35290;SDS011;21411;50.024;19.220;2024-02-14T11:23:52;7.10;;;5.40;;
35290;SDS011;21411;50.024;19.220;2024-02-14T11:26:20;9.20;;;6.40;;
35290;SDS011;21411;50.024;19.220;2024-02-14T11:28:49;7.20;;;5.30;;
35290;SDS011;21411;50.024;19.220;2024-02-14T11:31:17;8.50;;;5.40;;
35290;SDS011;21411;50.024;19.220;2024-02-14T11:33:43;8.60;;;5.80;;
35290;SDS011;21411;50.024;19.220;2024-02-14T11:36:12;8.40;;;5.70;;
35290;SDS011;21411;50.024;19.220;2024-02-14T11:38:42;7.50;;;5.90;;
35290;SDS011;21411;50.024;19.220;2024-02-14T11:41:10;8.50;;;5.90;;
35290;SDS011;21411;50.024;19.220;2024-02-14T11:43:37;10.60;;;6.50;;
35290;SDS011;21411;50.024;19.220;2024-02-14T11:46:05;8.70;;;6.00;;
35290;SDS011;21411;50.024;19.220;2024-02-14T11:48:32;7.60;;;6.10;;
35290;SDS011;21411;50.024;19.220;2024-02-14T11:50:59;8.70;;;6.60;;
35290;SDS011;21411;50.024;19.220;2024-02-14T11:53:26;8.30;;;5.70;;
35290;SDS011;21411;50.024;19.220;2024-02-14T11:55:55;8.40;;;5.40;;
35290;SDS011;21411;50.024;19.220;2024-02-14T11:58:22;7.50;;;5.20;;
35290;SDS011;21411;50.024;19.220;2024-02-14T12:00:48;5.90;;;4.70;;
35290;SDS011;21411;50.024;19.220;2024-02-14T12:03:18;7.40;;;4.10;;
35290;SDS011;21411;50.024;19.220;2024-02-14T12:05:49;6.50;;;4.80;;
35290;SDS011;21411;50.024;19.220;2024-02-14T12:08:16;5.50;;;3.70;;
35290;SDS011;21411;50.024;19.220;2024-02-14T12:10:46;10.40;;;5.00;;
35290;SDS011;21411;50.024;19.220;2024-02-14T12:13:16;5.70;;;4.70;;
35290;SDS011;21411;50.024;19.220;2024-02-14T12:18:13;7.30;;;5.00;;
35290;SDS011;21411;50.024;19.220;2024-02-14T12:20:42;6.10;;;4.40;;
35290;SDS011;21411;50.024;19.220;2024-02-14T12:23:17;6.70;;;4.80;;
35290;SDS011;21411;50.024;19.220;2024-02-14T12:25:45;6.40;;;5.00;;
35290;SDS011;21411;50.024;19.220;2024-02-14T12:28:13;7.10;;;5.00;;
35290;SDS011;21411;50.024;19.220;2024-02-14T12:33:24;10.00;;;5.40;;
35290;SDS011;21411;50.024;19.220;2024-02-14T12:35:55;8.40;;;5.10;;
35290;SDS011;21411;50.024;19.220;2024-02-14T12:38:23;7.00;;;4.90;;
35290;SDS011;21411;50.024;19.220;2024-02-14T12:40:51;7.10;;;5.00;;
35290;SDS011;21411;50.024;19.220;2024-02-14T12:43:20;7.60;;;4.80;;
35290;SDS011;21411;50.024;19.220;2024-02-14T12:45:47;5.90;;;4.40;;
35290;SDS011;21411;50.024;19.220;2024-02-14T12:48:21;6.40;;;4.90;;
35290;SDS011;21411;50.024;19.220;2024-02-14T12:50:50;6.80;;;4.80;;
35290;SDS011;21411;50.024;19.220;2024-02-14T12:53:18;7.90;;;4.70;;
35290;SDS011;21411;50.024;19.220;2024-02-14T12:55:46;7.70;;;5.30;;
35290;SDS011;21411;50.024;19.220;2024-02-14T12:58:13;6.70;;;4.90;;
35290;SDS011;21411;50.024;19.220;2024-02-14T13:00:40;7.60;;;5.00;;
35290;SDS011;21411;50.024;19.220;2024-02-14T13:03:08;8.90;;;5.20;;
35290;SDS011;21411;50.024;19.220;2024-02-14T13:05:37;7.20;;;4.70;;
35290;SDS011;21411;50.024;19.220;2024-02-14T13:08:04;7.40;;;5.60;;
35290;SDS011;21411;50.024;19.220;2024-02-14T13:10:32;7.20;;;4.60;;
35290;SDS011;21411;50.024;19.220;2024-02-14T13:12:58;6.70;;;5.00;;
35290;SDS011;21411;50.024;19.220;2024-02-14T13:15:25;6.00;;;4.80;;
35290;SDS011;21411;50.024;19.220;2024-02-14T13:17:51;4.90;;;4.40;;
35290;SDS011;21411;50.024;19.220;2024-02-14T13:20:18;5.50;;;4.10;;
35290;SDS011;21411;50.024;19.220;2024-02-14T13:22:45;7.20;;;4.50;;
35290;SDS011;21411;50.024;19.220;2024-02-14T13:25:12;6.50;;;4.60;;
35290;SDS011;21411;50.024;19.220;2024-02-14T13:27:41;6.50;;;4.60;;
35290;SDS011;21411;50.024;19.220;2024-02-14T13:30:07;8.20;;;5.60;;
35290;SDS011;21411;50.024;19.220;2024-02-14T13:32:34;6.80;;;4.70;;
35290;SDS011;21411;50.024;19.220;2024-02-14T13:35:01;6.30;;;4.40;;
35290;SDS011;21411;50.024;19.220;2024-02-14T13:37:27;10.60;;;5.50;;
35290;SDS011;21411;50.024;19.220;2024-02-14T13:39:54;8.70;;;5.10;;
35290;SDS011;21411;50.024;19.220;2024-02-14T13:42:21;8.30;;;5.20;;
35290;SDS011;21411;50.024;19.220;2024-02-14T13:44:48;6.10;;;4.80;;
35290;SDS011;21411;50.024;19.220;2024-02-14T13:47:18;6.10;;;4.20;;
35290;SDS011;21411;50.024;19.220;2024-02-14T13:49:45;11.20;;;5.60;;
35290;SDS011;21411;50.024;19.220;2024-02-14T13:52:11;9.00;;;5.70;;
35290;SDS011;21411;50.024;19.220;2024-02-14T13:54:38;11.00;;;5.90;;
35290;SDS011;21411;50.024;19.220;2024-02-14T13:57:05;6.90;;;4.90;;
35290;SDS011;21411;50.024;19.220;2024-02-14T13:59:31;13.70;;;7.00;;
35290;SDS011;21411;50.024;19.220;2024-02-14T14:01:58;8.80;;;5.30;;
35290;SDS011;21411;50.024;19.220;2024-02-14T14:04:25;6.40;;;4.70;;
35290;SDS011;21411;50.024;19.220;2024-02-14T14:06:54;9.00;;;5.50;;
35290;SDS011;21411;50.024;19.220;2024-02-14T14:09:21;7.50;;;4.30;;
35290;SDS011;21411;50.024;19.220;2024-02-14T14:11:48;12.10;;;5.50;;
35290;SDS011;21411;50.024;19.220;2024-02-14T14:14:17;16.30;;;7.40;;
35290;SDS011;21411;50.024;19.220;2024-02-14T14:16:45;14.80;;;7.40;;
35290;SDS011;21411;50.024;19.220;2024-02-14T14:19:12;12.10;;;5.40;;
35290;SDS011;21411;50.024;19.220;2024-02-14T14:21:38;12.90;;;5.00;;